Time;durP1;ratioP1;P1;durP2;ratioP2;P2;SDS_P1;SDS_P2;PMS_P1;PMS_P2;Temp;Humidity;BMP_temperature;BMP_pressure;BME280_temperature;BME280_humidity;BME280_pressure;Samples;Min_cycle;Max_cycle;Signal;HPM_P1;HPM_P2
2022/05/29 00:00:21;;;;;;;5.68;4.78;;;;;;;;;;4988644;28;20092;-77
2022/05/29 00:02:48;;;;;;;5.57;4.93;;;;;;;;;;4986497;28;20112;-74
2022/05/29 00:05:15;;;;;;;6.05;5.13;;;;;;;;;;4988379;28;20056;-75
2022/05/29 00:07:40;;;;;;;5.35;4.85;;;;;;;;;;4990943;28;20152;-76
2022/05/29 00:10:08;;;;;;;4.97;4.53;;;;;;;;;;4988807;28;20049;-76
2022/05/29 00:12:33;;;;;;;4.35;4.00;;;;;;;;;;4989543;28;20026;-76
2022/05/29 00:14:59;;;;;;;6.45;4.05;;;;;;;;;;4986214;28;20040;-75
2022/05/29 00:17:24;;;;;;;5.50;4.28;;;;;;;;;;4987093;28;20028;-75
2022/05/29 00:19:50;;;;;;;5.40;4.93;;;;;;;;;;4978469;28;20033;-79
2022/05/29 00:22:17;;;;;;;4.95;4.45;;;;;;;;;;4987029;28;20026;-76
2022/05/29 00:24:43;;;;;;;5.05;4.65;;;;;;;;;;4980296;28;20037;-79
2022/05/29 00:27:11;;;;;;;5.78;5.15;;;;;;;;;;4990169;28;20026;-75
2022/05/29 00:29:36;;;;;;;5.20;4.70;;;;;;;;;;4988884;28;20030;-77
2022/05/29 00:32:03;;;;;;;5.25;4.75;;;;;;;;;;4986361;28;20138;-77
2022/05/29 00:34:28;;;;;;;5.95;5.15;;;;;;;;;;4986164;28;20041;-77
2022/05/29 00:36:53;;;;;;;5.90;5.30;;;;;;;;;;4989534;28;20101;-76
2022/05/29 00:39:19;;;;;;;5.38;4.93;;;;;;;;;;4989279;28;20032;-77
2022/05/29 00:41:45;;;;;;;6.25;5.28;;;;;;;;;;4990852;28;20018;-77
2022/05/29 00:44:12;;;;;;;6.20;4.65;;;;;;;;;;4986091;28;20455;-77
2022/05/29 00:46:39;;;;;;;6.32;5.50;;;;;;;;;;4975926;28;20517;-77
2022/05/29 00:49:07;;;;;;;5.97;5.07;;;;;;;;;;4983803;28;20069;-78
2022/05/29 00:51:37;;;;;;;6.55;5.78;;;;;;;;;;4987496;28;20026;-76
2022/05/29 00:54:03;;;;;;;6.80;6.18;;;;;;;;;;4988742;28;20022;-76
2022/05/29 00:56:28;;;;;;;6.85;6.15;;;;;;;;;;4986138;28;20057;-76
2022/05/29 00:58:56;;;;;;;6.82;6.13;;;;;;;;;;4982462;28;20026;-76
2022/05/29 01:01:21;;;;;;;6.90;6.25;;;;;;;;;;4980049;28;20030;-77
2022/05/29 01:03:47;;;;;;;7.40;5.95;;;;;;;;;;4986011;28;20354;-78
2022/05/29 01:06:12;;;;;;;5.82;5.32;;;;;;;;;;4987900;28;20034;-77
2022/05/29 01:08:38;;;;;;;6.40;5.75;;;;;;;;;;4987510;28;20093;-76
2022/05/29 01:11:23;;;;;;;6.38;5.78;;;;;;;;;;4988486;28;20064;-77
2022/05/29 01:13:52;;;;;;;7.28;5.60;;;;;;;;;;4985813;28;20034;-77
2022/05/29 01:16:21;;;;;;;6.43;5.82;;;;;;;;;;4990339;28;20054;-77
2022/05/29 01:18:46;;;;;;;7.43;6.20;;;;;;;;;;4981999;28;20041;-77
2022/05/29 01:21:28;;;;;;;7.10;6.35;;;;;;;;;;4979913;28;20026;-76
2022/05/29 01:24:11;;;;;;;6.45;5.72;;;;;;;;;;4987626;28;20044;-78
2022/05/29 01:26:58;;;;;;;6.47;5.70;;;;;;;;;;4987375;28;20053;-77
2022/05/29 01:29:32;;;;;;;6.75;6.15;;;;;;;;;;4985641;28;21151;-76
2022/05/29 01:32:02;;;;;;;7.28;6.47;;;;;;;;;;4983335;28;20026;-77
2022/05/29 01:34:27;;;;;;;8.70;7.80;;;;;;;;;;4986911;28;20137;-78
2022/05/29 01:37:01;;;;;;;7.63;6.82;;;;;;;;;;4987601;28;20117;-75
2022/05/29 01:39:29;;;;;;;8.55;6.97;;;;;;;;;;4987198;28;20062;-75
2022/05/29 01:42:01;;;;;;;8.20;7.40;;;;;;;;;;4983491;28;20018;-77
2022/05/29 01:44:27;;;;;;;12.63;8.07;;;;;;;;;;4987766;28;20022;-76
2022/05/29 01:46:55;;;;;;;8.82;7.68;;;;;;;;;;4985768;28;20109;-75
2022/05/29 01:49:23;;;;;;;9.37;8.03;;;;;;;;;;4985065;28;20034;-77
2022/05/29 01:51:52;;;;;;;8.38;7.57;;;;;;;;;;4980974;28;20026;-75
2022/05/29 01:54:17;;;;;;;8.90;8.00;;;;;;;;;;4980662;28;20050;-75
2022/05/29 01:56:45;;;;;;;9.68;7.55;;;;;;;;;;4988735;28;20050;-75
2022/05/29 01:59:15;;;;;;;8.15;7.28;;;;;;;;;;4992437;28;20026;-74
2022/05/29 02:01:40;;;;;;;;;;;;;;;;;;4989701;28;20057;-75
2022/05/29 02:04:13;;;;;;;10.50;7.00;;;;;;;;;;4982618;28;19961;-75
2022/05/29 02:09:27;;;;;;;10.50;7.93;;;;;;;;;;4990921;28;20048;-77
2022/05/29 02:11:54;;;;;;;10.90;9.20;;;;;;;;;;4988361;28;20057;-77
2022/05/29 02:14:23;;;;;;;10.63;8.93;;;;;;;;;;4991180;28;20034;-74
2022/05/29 02:16:54;;;;;;;10.57;8.50;;;;;;;;;;4990182;28;20026;-76
2022/05/29 02:19:26;;;;;;;9.82;8.80;;;;;;;;;;4993447;28;20076;-76
2022/05/29 02:21:55;;;;;;;11.20;8.05;;;;;;;;;;4990836;28;20034;-75
2022/05/29 02:24:24;;;;;;;11.70;8.50;;;;;;;;;;4986691;28;20034;-75
2022/05/29 02:27:02;;;;;;;8.82;7.78;;;;;;;;;;4987691;28;20449;-75
2022/05/29 02:29:28;;;;;;;8.35;6.22;;;;;;;;;;4988709;28;20025;-77
2022/05/29 02:32:03;;;;;;;7.55;6.15;;;;;;;;;;4981364;28;20034;-77
2022/05/29 02:34:28;;;;;;;7.65;6.28;;;;;;;;;;4983263;28;20045;-77
2022/05/29 02:37:26;;;;;;;6.78;6.07;;;;;;;;;;4986883;28;20022;-75
2022/05/29 02:40:10;;;;;;;7.00;5.80;;;;;;;;;;4964658;28;20045;-75
2022/05/29 02:42:54;;;;;;;10.45;7.20;;;;;;;;;;4987854;28;20371;-75
2022/05/29 02:45:31;;;;;;;9.20;6.20;;;;;;;;;;4990457;28;20484;-75
2022/05/29 02:48:16;;;;;;;6.63;5.93;;;;;;;;;;4984315;28;22578;-76
2022/05/29 02:51:01;;;;;;;6.25;5.65;;;;;;;;;;4989699;28;20026;-75
2022/05/29 02:53:27;;;;;;;7.57;6.70;;;;;;;;;;4988704;28;20041;-75
2022/05/29 02:55:53;;;;;;;9.23;6.68;;;;;;;;;;4988241;28;20366;-75
2022/05/29 02:58:24;;;;;;;9.80;7.13;;;;;;;;;;4979727;28;20449;-76
2022/05/29 03:01:05;;;;;;;9.25;6.68;;;;;;;;;;4988694;28;20030;-76
2022/05/29 03:03:41;;;;;;;9.75;7.25;;;;;;;;;;4990416;28;20438;-76
2022/05/29 03:06:24;;;;;;;8.93;7.90;;;;;;;;;;4987345;28;20038;-75
2022/05/29 03:08:50;;;;;;;8.07;6.78;;;;;;;;;;4986933;28;20023;-75
2022/05/29 03:11:21;;;;;;;8.77;6.40;;;;;;;;;;4990901;28;20092;-75
2022/05/29 03:14:13;;;;;;;8.25;6.47;;;;;;;;;;4989012;28;20056;-75
2022/05/29 03:16:57;;;;;;;8.48;6.57;;;;;;;;;;4984660;28;20042;-76
2022/05/29 03:19:38;;;;;;;6.93;6.22;;;;;;;;;;4979190;28;20037;-76
2022/05/29 03:22:11;;;;;;;7.00;6.30;;;;;;;;;;4987707;28;20126;-77
2022/05/29 03:24:43;;;;;;;9.20;7.32;;;;;;;;;;4990291;28;20022;-76
2022/05/29 03:27:19;;;;;;;8.55;6.85;;;;;;;;;;4985863;28;20038;-77
2022/05/29 03:29:47;;;;;;;8.57;7.57;;;;;;;;;;4990048;28;20029;-75
2022/05/29 03:32:13;;;;;;;9.63;7.95;;;;;;;;;;4988263;28;20033;-77
2022/05/29 03:34:38;;;;;;;10.50;9.15;;;;;;;;;;4986381;28;20664;-75
2022/05/29 03:37:03;;;;;;;11.20;8.90;;;;;;;;;;4988154;28;20445;-75
2022/05/29 03:39:29;;;;;;;10.52;9.43;;;;;;;;;;4985923;28;20022;-75
2022/05/29 03:41:54;;;;;;;15.45;10.43;;;;;;;;;;4990262;28;20430;-74
2022/05/29 03:44:21;;;;;;;14.77;11.13;;;;;;;;;;4990749;28;20038;-77
2022/05/29 03:46:46;;;;;;;12.52;10.80;;;;;;;;;;4987338;28;20098;-74
2022/05/29 03:49:13;;;;;;;14.80;11.13;;;;;;;;;;4989475;28;20501;-76
2022/05/29 03:51:38;;;;;;;16.90;12.68;;;;;;;;;;4988874;28;20022;-75
2022/05/29 03:54:04;;;;;;;14.32;12.07;;;;;;;;;;4984610;28;20038;-74
2022/05/29 03:56:30;;;;;;;15.10;12.35;;;;;;;;;;4980436;28;20109;-75
2022/05/29 03:58:55;;;;;;;15.98;12.10;;;;;;;;;;4990157;28;20034;-74
2022/05/29 04:01:21;;;;;;;15.85;12.00;;;;;;;;;;4988141;28;20037;-73
2022/05/29 04:03:46;;;;;;;14.32;12.80;;;;;;;;;;4987993;28;20034;-74
2022/05/29 04:06:11;;;;;;;16.38;13.30;;;;;;;;;;4986105;28;20497;-74
2022/05/29 04:14:07;;;;;;;16.85;12.52;;;;;;;;;;4978003;28;20480;-75
2022/05/29 04:16:32;;;;;;;16.70;13.15;;;;;;;;;;4977652;28;20030;-76
2022/05/29 04:18:57;;;;;;;12.85;11.32;;;;;;;;;;4976811;28;20026;-74
2022/05/29 04:21:23;;;;;;;14.23;12.07;;;;;;;;;;4984531;28;20152;-76
2022/05/29 04:23:48;;;;;;;16.50;12.13;;;;;;;;;;4978823;28;20049;-74
2022/05/29 04:26:14;;;;;;;14.35;11.73;;;;;;;;;;4982080;28;20029;-75
2022/05/29 04:28:40;;;;;;;14.50;12.32;;;;;;;;;;4964069;28;20394;-74
2022/05/29 04:31:05;;;;;;;16.60;12.55;;;;;;;;;;4979650;28;20030;-75
2022/05/29 04:33:31;;;;;;;15.75;13.98;;;;;;;;;;4980435;28;20030;-78
2022/05/29 04:35:56;;;;;;;14.45;11.27;;;;;;;;;;4982471;28;20018;-75
2022/05/29 04:38:23;;;;;;;15.65;12.50;;;;;;;;;;4979845;28;20589;-76
2022/05/29 04:40:49;;;;;;;14.13;11.52;;;;;;;;;;4980847;28;20771;-76
2022/05/29 04:43:14;;;;;;;13.85;11.85;;;;;;;;;;4982538;28;20592;-74
2022/05/29 04:45:40;;;;;;;13.45;11.77;;;;;;;;;;4986057;28;20021;-74
2022/05/29 04:48:06;;;;;;;13.98;11.48;;;;;;;;;;4960347;28;20452;-75
2022/05/29 04:50:32;;;;;;;12.57;10.02;;;;;;;;;;4983830;28;20029;-78
2022/05/29 04:52:57;;;;;;;15.13;10.98;;;;;;;;;;4975650;28;20044;-75
2022/05/29 04:55:22;;;;;;;12.73;9.38;;;;;;;;;;4973311;28;20037;-75
2022/05/29 04:57:48;;;;;;;11.98;10.57;;;;;;;;;;4986652;28;20041;-77
2022/05/29 05:00:13;;;;;;;12.93;10.95;;;;;;;;;;4985610;28;20030;-71
2022/05/29 05:02:39;;;;;;;14.50;11.10;;;;;;;;;;4986374;28;20030;-73
2022/05/29 05:05:05;;;;;;;13.95;10.60;;;;;;;;;;4985596;28;20026;-72
2022/05/29 05:07:30;;;;;;;12.65;9.90;;;;;;;;;;4986372;28;20145;-72
2022/05/29 05:09:55;;;;;;;12.00;10.35;;;;;;;;;;4990814;28;20023;-73
2022/05/29 05:12:21;;;;;;;12.93;10.93;;;;;;;;;;4989844;28;20499;-81
2022/05/29 05:14:46;;;;;;;13.40;10.40;;;;;;;;;;4982797;28;20531;-75
2022/05/29 05:17:12;;;;;;;12.60;10.52;;;;;;;;;;4981826;28;20097;-76
2022/05/29 05:19:37;;;;;;;14.45;11.52;;;;;;;;;;4986940;28;20022;-75
2022/05/29 05:22:03;;;;;;;10.88;9.63;;;;;;;;;;4990070;28;20044;-74
2022/05/29 05:24:29;;;;;;;13.27;10.90;;;;;;;;;;4982982;28;20053;-73
2022/05/29 05:26:54;;;;;;;12.93;11.45;;;;;;;;;;4979761;28;20446;-73
2022/05/29 05:29:20;;;;;;;15.38;11.70;;;;;;;;;;4988384;28;20024;-73
2022/05/29 05:31:45;;;;;;;12.45;10.48;;;;;;;;;;4975799;28;20037;-73
2022/05/29 05:34:10;;;;;;;14.07;11.43;;;;;;;;;;4986194;28;20057;-73
2022/05/29 05:36:36;;;;;;;15.25;12.25;;;;;;;;;;4987911;28;20041;-77
2022/05/29 05:39:01;;;;;;;13.40;11.95;;;;;;;;;;4984012;28;20101;-75
2022/05/29 05:41:26;;;;;;;11.75;10.48;;;;;;;;;;4984410;28;20028;-74
2022/05/29 05:43:52;;;;;;;12.05;10.63;;;;;;;;;;4987369;28;20149;-75
2022/05/29 05:46:17;;;;;;;12.18;10.88;;;;;;;;;;4988059;28;20097;-75
2022/05/29 05:48:43;;;;;;;14.43;11.93;;;;;;;;;;4987348;28;20026;-75
2022/05/29 05:51:09;;;;;;;15.90;11.65;;;;;;;;;;4989381;28;20441;-75
2022/05/29 05:53:35;;;;;;;12.77;11.27;;;;;;;;;;4983155;28;20033;-75
2022/05/29 05:56:11;;;;;;;14.43;12.13;;;;;;;;;;4982569;28;20252;-82
2022/05/29 05:58:37;;;;;;;15.45;12.98;;;;;;;;;;4987634;28;20028;-79
2022/05/29 06:01:03;;;;;;;14.88;12.93;;;;;;;;;;4989389;28;20029;-77
2022/05/29 06:03:29;;;;;;;15.30;13.70;;;;;;;;;;4985075;28;20034;-77
2022/05/29 06:05:54;;;;;;;16.42;13.93;;;;;;;;;;4988931;28;20018;-75
2022/05/29 06:08:19;;;;;;;18.10;15.25;;;;;;;;;;4975488;28;20026;-80
2022/05/29 06:10:45;;;;;;;16.58;14.77;;;;;;;;;;4978605;28;20023;-73
2022/05/29 06:13:10;;;;;;;19.20;14.95;;;;;;;;;;4979718;28;20022;-80
2022/05/29 06:15:35;;;;;;;16.90;14.80;;;;;;;;;;4983046;28;20037;-80
2022/05/29 06:18:01;;;;;;;21.38;16.05;;;;;;;;;;4982908;28;20026;-82
2022/05/29 06:20:26;;;;;;;19.10;16.08;;;;;;;;;;4985615;28;20041;-79
2022/05/29 06:22:51;;;;;;;18.27;15.55;;;;;;;;;;4988062;28;20072;-84
2022/05/29 06:25:17;;;;;;;20.58;16.63;;;;;;;;;;4989258;28;20025;-79
2022/05/29 06:27:43;;;;;;;17.67;15.38;;;;;;;;;;4982068;28;20371;-79
2022/05/29 06:30:10;;;;;;;19.45;15.95;;;;;;;;;;4979655;28;20081;-78
2022/05/29 06:32:36;;;;;;;20.40;17.15;;;;;;;;;;4982007;28;20038;-80
2022/05/29 06:35:02;;;;;;;18.85;15.77;;;;;;;;;;4984792;28;20036;-81
2022/05/29 06:37:28;;;;;;;18.00;15.15;;;;;;;;;;4975439;28;20026;-76
2022/05/29 06:39:53;;;;;;;18.92;16.08;;;;;;;;;;4986393;28;20520;-76
2022/05/29 06:42:18;;;;;;;21.17;15.35;;;;;;;;;;4990703;28;20030;-77
2022/05/29 06:44:44;;;;;;;19.98;16.55;;;;;;;;;;4983994;28;20029;-76
2022/05/29 06:47:09;;;;;;;19.58;16.48;;;;;;;;;;4980329;28;20027;-73
2022/05/29 06:49:35;;;;;;;20.90;16.35;;;;;;;;;;4983069;28;20033;-73
2022/05/29 06:52:04;;;;;;;20.77;16.48;;;;;;;;;;4978877;28;20711;-76
2022/05/29 06:54:29;;;;;;;20.02;15.45;;;;;;;;;;4977773;28;20026;-73
2022/05/29 06:56:54;;;;;;;18.92;14.30;;;;;;;;;;4981541;28;20529;-78
2022/05/29 06:59:21;;;;;;;17.98;14.75;;;;;;;;;;4967925;28;20049;-79
2022/05/29 07:07:22;;;;;;;17.92;14.77;;;;;;;;;;4983536;28;20068;-80
2022/05/29 07:09:47;;;;;;;17.35;14.85;;;;;;;;;;4988451;28;20089;-75
2022/05/29 07:12:15;;;;;;;17.60;14.48;;;;;;;;;;4985642;28;20026;-79
2022/05/29 07:14:43;;;;;;;17.75;14.55;;;;;;;;;;4980324;28;20065;-73
2022/05/29 07:17:11;;;;;;;16.58;13.75;;;;;;;;;;4974430;28;20042;-75
2022/05/29 07:19:36;;;;;;;16.27;14.02;;;;;;;;;;4974577;28;20100;-73
2022/05/29 07:22:02;;;;;;;16.48;13.65;;;;;;;;;;4973645;28;20022;-75
2022/05/29 07:24:29;;;;;;;17.58;14.18;;;;;;;;;;4973444;28;20369;-75
2022/05/29 07:26:55;;;;;;;16.38;13.20;;;;;;;;;;4971855;28;20122;-77
2022/05/29 07:29:21;;;;;;;16.25;13.10;;;;;;;;;;4973893;28;20105;-76
2022/05/29 07:31:47;;;;;;;14.88;12.45;;;;;;;;;;4973370;28;20029;-78
2022/05/29 07:34:12;;;;;;;16.70;13.30;;;;;;;;;;4973027;28;20034;-74
2022/05/29 07:36:38;;;;;;;16.20;13.13;;;;;;;;;;4979340;28;20022;-74
2022/05/29 07:39:03;;;;;;;12.63;10.40;;;;;;;;;;4988082;28;20026;-73
2022/05/29 07:44:13;;;;;;;21.10;12.90;;;;;;;;;;4983061;28;20041;-77
2022/05/29 07:46:38;;;;;;;14.88;12.18;;;;;;;;;;4973671;28;20022;-74
2022/05/29 07:49:03;;;;;;;12.80;10.85;;;;;;;;;;4987926;28;20038;-73
2022/05/29 07:51:29;;;;;;;14.75;11.20;;;;;;;;;;4987539;28;20038;-76
2022/05/29 07:53:56;;;;;;;12.43;9.95;;;;;;;;;;4987180;28;20030;-75
2022/05/29 07:56:22;;;;;;;12.50;10.55;;;;;;;;;;4991486;28;20049;-77
2022/05/29 07:58:47;;;;;;;12.82;9.75;;;;;;;;;;4988417;28;20030;-73
2022/05/29 08:01:13;;;;;;;16.00;9.68;;;;;;;;;;4987633;28;20050;-76
2022/05/29 08:03:39;;;;;;;11.07;9.45;;;;;;;;;;4984520;28;20041;-76
2022/05/29 08:06:04;;;;;;;11.77;9.00;;;;;;;;;;4980897;28;20022;-75
2022/05/29 08:08:31;;;;;;;11.07;8.23;;;;;;;;;;4980773;28;20030;-75
2022/05/29 08:10:57;;;;;;;11.80;9.45;;;;;;;;;;4976529;28;20393;-75
2022/05/29 08:13:23;;;;;;;10.02;8.82;;;;;;;;;;4974174;28;20104;-73
2022/05/29 08:15:48;;;;;;;9.55;8.07;;;;;;;;;;4975231;28;20506;-73
2022/05/29 08:18:14;;;;;;;11.43;8.35;;;;;;;;;;4983256;28;20034;-74
2022/05/29 08:20:39;;;;;;;11.90;8.18;;;;;;;;;;4979961;28;20034;-72
2022/05/29 08:23:05;;;;;;;10.77;8.75;;;;;;;;;;4977708;28;20072;-74
2022/05/29 08:30:58;;;;;;;10.27;7.50;;;;;;;;;;4970431;28;20041;-72
2022/05/29 08:33:24;;;;;;;9.20;6.55;;;;;;;;;;4971890;28;20361;-73
2022/05/29 08:35:51;;;;;;;8.95;7.30;;;;;;;;;;4976492;28;20041;-73
2022/05/29 08:38:17;;;;;;;8.63;6.57;;;;;;;;;;4978567;28;20385;-74
2022/05/29 08:40:49;;;;;;;8.13;6.00;;;;;;;;;;4976688;28;20080;-76
2022/05/29 08:43:32;;;;;;;6.95;6.30;;;;;;;;;;4973046;28;20045;-73
2022/05/29 08:46:00;;;;;;;9.30;6.55;;;;;;;;;;4979358;28;20030;-71
2022/05/29 08:48:26;;;;;;;7.00;6.30;;;;;;;;;;4977146;28;20023;-78
2022/05/29 08:51:11;;;;;;;7.07;6.25;;;;;;;;;;4980858;28;20380;-80
2022/05/29 08:53:48;;;;;;;8.32;6.68;;;;;;;;;;4954834;28;20053;-73
2022/05/29 08:56:27;;;;;;;6.78;6.05;;;;;;;;;;4980151;28;20465;-74
2022/05/29 08:58:53;;;;;;;7.68;6.88;;;;;;;;;;4976161;28;20124;-74
2022/05/29 09:01:23;;;;;;;6.93;5.60;;;;;;;;;;4977211;28;20562;-77
2022/05/29 09:04:04;;;;;;;7.57;6.07;;;;;;;;;;4974031;28;20079;-77
2022/05/29 09:06:33;;;;;;;7.53;6.05;;;;;;;;;;4975241;28;20385;-77
2022/05/29 09:08:58;;;;;;;;;;;;;;;;;;4975218;28;20030;-80
2022/05/29 09:11:33;;;;;;;11.30;6.57;;;;;;;;;;4975454;28;19914;-73
2022/05/29 09:14:21;;;;;;;6.50;5.80;;;;;;;;;;4987029;28;20283;-71
2022/05/29 09:16:49;;;;;;;7.43;6.20;;;;;;;;;;4980751;28;20014;-73
2022/05/29 09:19:24;;;;;;;5.63;5.13;;;;;;;;;;4986394;28;20461;-74
2022/05/29 09:21:55;;;;;;;5.60;5.00;;;;;;;;;;4986820;28;20036;-74
2022/05/29 09:24:30;;;;;;;4.90;4.50;;;;;;;;;;4987172;28;20026;-76
2022/05/29 09:26:55;;;;;;;5.70;4.15;;;;;;;;;;4987864;28;20026;-75
2022/05/29 09:29:20;;;;;;;5.10;4.20;;;;;;;;;;4988868;28;20124;-74
2022/05/29 09:31:46;;;;;;;4.88;3.92;;;;;;;;;;4980109;28;20109;-77
2022/05/29 09:34:11;;;;;;;8.60;4.85;;;;;;;;;;4975827;28;20046;-72
2022/05/29 09:36:39;;;;;;;4.85;4.18;;;;;;;;;;4985594;28;20341;-75
2022/05/29 09:39:11;;;;;;;4.72;4.03;;;;;;;;;;4971899;28;20038;-73
2022/05/29 09:41:41;;;;;;;5.07;4.38;;;;;;;;;;4975315;28;20030;-71
2022/05/29 09:44:09;;;;;;;4.03;3.60;;;;;;;;;;4988077;28;20421;-72
2022/05/29 09:46:37;;;;;;;5.45;3.30;;;;;;;;;;4973780;28;20026;-75
2022/05/29 09:52:11;;;;;;;3.50;3.20;;;;;;;;;;4981647;28;20112;-73
2022/05/29 09:54:38;;;;;;;6.25;3.50;;;;;;;;;;4969410;28;20070;-75
2022/05/29 09:57:11;;;;;;;4.40;3.03;;;;;;;;;;4980669;28;20046;-71
2022/05/29 09:59:38;;;;;;;3.15;2.95;;;;;;;;;;4984259;28;20056;-71
2022/05/29 10:02:03;;;;;;;3.75;3.13;;;;;;;;;;4985769;28;20026;-75
2022/05/29 10:04:37;;;;;;;4.75;3.42;;;;;;;;;;4985874;28;20029;-73
2022/05/29 10:07:12;;;;;;;5.25;2.85;;;;;;;;;;4985981;28;20450;-72
2022/05/29 10:09:54;;;;;;;3.90;3.50;;;;;;;;;;4992164;28;20030;-77
2022/05/29 10:12:20;;;;;;;3.38;3.08;;;;;;;;;;4989183;28;20034;-74
2022/05/29 10:14:45;;;;;;;4.22;3.67;;;;;;;;;;4988403;28;20037;-74
2022/05/29 10:17:34;;;;;;;3.28;2.97;;;;;;;;;;4990896;28;20037;-72
2022/05/29 10:20:00;;;;;;;3.83;3.42;;;;;;;;;;4984504;28;20084;-73
2022/05/29 10:22:36;;;;;;;4.63;3.30;;;;;;;;;;5007836;28;20030;-75
2022/05/29 10:25:11;;;;;;;3.63;3.10;;;;;;;;;;4991813;28;20026;-73
2022/05/29 10:27:37;;;;;;;4.18;3.15;;;;;;;;;;4990173;28;20074;-75
2022/05/29 10:30:04;;;;;;;3.50;3.20;;;;;;;;;;4991316;28;20170;-70
2022/05/29 10:32:31;;;;;;;3.85;3.45;;;;;;;;;;4990910;28;20026;-76
2022/05/29 10:35:15;;;;;;;5.13;3.63;;;;;;;;;;4991626;28;20037;-72
2022/05/29 10:37:42;;;;;;;4.10;3.70;;;;;;;;;;4989162;28;20045;-71
2022/05/29 10:40:12;;;;;;;3.75;3.35;;;;;;;;;;4991190;28;20034;-72
2022/05/29 10:42:43;;;;;;;4.10;3.70;;;;;;;;;;4990227;28;20030;-72
2022/05/29 10:45:15;;;;;;;3.80;3.35;;;;;;;;;;4994041;28;20109;-71
2022/05/29 10:47:44;;;;;;;4.65;3.05;;;;;;;;;;4990654;28;20065;-74
2022/05/29 10:50:21;;;;;;;4.32;3.92;;;;;;;;;;4991172;28;20128;-74
2022/05/29 10:52:58;;;;;;;3.75;3.22;;;;;;;;;;4984936;28;20057;-74
2022/05/29 10:55:33;;;;;;;3.47;3.15;;;;;;;;;;4977888;28;20027;-71
2022/05/29 10:58:20;;;;;;;4.15;3.50;;;;;;;;;;4975461;28;20084;-73
2022/05/29 11:00:55;;;;;;;3.22;2.92;;;;;;;;;;4985143;28;20035;-75
2022/05/29 11:03:39;;;;;;;3.95;3.55;;;;;;;;;;4974408;28;20030;-71
2022/05/29 11:06:20;;;;;;;3.33;3.10;;;;;;;;;;4973497;28;20099;-70
2022/05/29 11:08:51;;;;;;;3.60;3.30;;;;;;;;;;4987019;28;20040;-73
2022/05/29 11:11:34;;;;;;;3.35;3.03;;;;;;;;;;4989037;28;20037;-73
2022/05/29 11:14:00;;;;;;;3.13;2.90;;;;;;;;;;4987927;28;20039;-72
2022/05/29 11:16:34;;;;;;;3.60;3.30;;;;;;;;;;4989957;28;20323;-72
2022/05/29 11:19:09;;;;;;;3.58;3.25;;;;;;;;;;4989103;28;20026;-76
2022/05/29 11:22:01;;;;;;;6.38;3.05;;;;;;;;;;4988424;28;20036;-73
2022/05/29 11:24:26;;;;;;;2.85;2.65;;;;;;;;;;4961088;28;20042;-72
2022/05/29 11:27:00;;;;;;;3.40;2.88;;;;;;;;;;4986453;28;20033;-72
2022/05/29 11:29:44;;;;;;;3.45;3.15;;;;;;;;;;4988207;28;20026;-75
2022/05/29 11:32:39;;;;;;;4.65;3.10;;;;;;;;;;4983510;28;20034;-75
2022/05/29 11:35:04;;;;;;;5.63;3.15;;;;;;;;;;4914007;28;20079;-75
2022/05/29 11:37:37;;;;;;;3.55;3.25;;;;;;;;;;4976721;28;20061;-78
2022/05/29 11:40:05;;;;;;;6.28;3.42;;;;;;;;;;4985546;28;20032;-74
2022/05/29 11:42:43;;;;;;;5.03;2.95;;;;;;;;;;4980336;28;20109;-74
2022/05/29 11:51:22;;;;;;;3.35;3.05;;;;;;;;;;4988341;28;20539;-78
2022/05/29 11:53:50;;;;;;;3.40;2.65;;;;;;;;;;4990226;28;20494;-76
2022/05/29 11:56:25;;;;;;;3.10;2.80;;;;;;;;;;4987829;28;20062;-74
2022/05/29 11:58:59;;;;;;;3.40;3.08;;;;;;;;;;4983457;28;20432;-73
2022/05/29 12:01:31;;;;;;;2.35;2.15;;;;;;;;;;4974432;28;20019;-74
2022/05/29 12:04:08;;;;;;;2.50;2.00;;;;;;;;;;4983313;28;20042;-78
2022/05/29 12:06:42;;;;;;;5.15;2.40;;;;;;;;;;4974928;28;20030;-77
2022/05/29 12:09:17;;;;;;;5.88;2.35;;;;;;;;;;4980632;28;20045;-76
2022/05/29 12:11:45;;;;;;;2.55;2.20;;;;;;;;;;4976153;28;20022;-71
2022/05/29 12:14:14;;;;;;;3.53;2.60;;;;;;;;;;4976891;28;20033;-77
2022/05/29 12:16:41;;;;;;;2.85;2.47;;;;;;;;;;4980303;28;20529;-76
2022/05/29 12:19:27;;;;;;;2.92;2.20;;;;;;;;;;4979458;28;20026;-77
2022/05/29 12:21:55;;;;;;;3.30;2.50;;;;;;;;;;4970817;28;20037;-72
2022/05/29 12:24:25;;;;;;;4.05;2.75;;;;;;;;;;4983375;28;20037;-76
2022/05/29 12:26:59;;;;;;;4.72;2.70;;;;;;;;;;4981751;28;20027;-72
2022/05/29 12:29:29;;;;;;;2.55;2.35;;;;;;;;;;4975427;28;20022;-70
2022/05/29 12:31:54;;;;;;;;;;;;;;;;;;4976597;28;20038;-73
2022/05/29 12:34:24;;;;;;;3.50;3.00;;;;;;;;;;4981238;28;19948;-74
2022/05/29 12:36:49;;;;;;;2.80;2.50;;;;;;;;;;4974074;28;20620;-81
2022/05/29 12:39:33;;;;;;;3.85;2.67;;;;;;;;;;4972998;28;20038;-77
2022/05/29 12:42:08;;;;;;;3.40;2.28;;;;;;;;;;4981029;28;20104;-75
2022/05/29 12:44:38;;;;;;;2.42;2.22;;;;;;;;;;4981034;28;20062;-78
2022/05/29 12:47:31;;;;;;;3.83;2.50;;;;;;;;;;4983440;28;20026;-80
2022/05/29 12:50:17;;;;;;;4.57;3.15;;;;;;;;;;4983889;28;20087;-76
2022/05/29 12:52:42;;;;;;;6.80;2.65;;;;;;;;;;4955769;28;20038;-73
2022/05/29 12:55:20;;;;;;;3.10;2.47;;;;;;;;;;4973522;28;20034;-74
2022/05/29 12:57:55;;;;;;;4.18;3.20;;;;;;;;;;4976049;28;20042;-77
2022/05/29 13:00:35;;;;;;;2.83;2.42;;;;;;;;;;4979784;28;21221;-75
2022/05/29 13:03:03;;;;;;;3.22;2.90;;;;;;;;;;4976187;28;20075;-74
2022/05/29 13:05:45;;;;;;;5.20;3.17;;;;;;;;;;4975793;28;20033;-76
2022/05/29 13:08:18;;;;;;;3.97;3.08;;;;;;;;;;4973919;28;20034;-75
2022/05/29 13:10:45;;;;;;;5.65;2.97;;;;;;;;;;4973590;28;20033;-72
2022/05/29 13:13:14;;;;;;;4.63;3.33;;;;;;;;;;4972209;28;20046;-71
2022/05/29 13:15:40;;;;;;;3.28;2.97;;;;;;;;;;4970376;28;20448;-74
2022/05/29 13:18:09;;;;;;;5.60;3.00;;;;;;;;;;4973058;28;20424;-73
2022/05/29 13:21:04;;;;;;;4.68;3.15;;;;;;;;;;4972845;28;20081;-74
2022/05/29 13:23:33;;;;;;;3.03;2.72;;;;;;;;;;4963734;28;20599;-74
2022/05/29 13:25:58;;;;;;;4.00;3.08;;;;;;;;;;4976476;28;20040;-76
2022/05/29 13:28:27;;;;;;;4.47;2.75;;;;;;;;;;4978721;28;20429;-76
2022/05/29 13:31:06;;;;;;;3.97;2.90;;;;;;;;;;4977077;28;20019;-71
2022/05/29 13:33:31;;;;;;;7.72;3.38;;;;;;;;;;4973339;28;20385;-72
2022/05/29 13:35:58;;;;;;;6.53;4.55;;;;;;;;;;4976417;28;20761;-74
2022/05/29 13:38:42;;;;;;;6.05;3.28;;;;;;;;;;4967571;28;20030;-71
2022/05/29 13:41:07;;;;;;;7.22;3.30;;;;;;;;;;4975317;28;20042;-72
2022/05/29 13:43:35;;;;;;;5.68;3.15;;;;;;;;;;4975009;28;21627;-71
2022/05/29 13:46:15;;;;;;;3.88;3.13;;;;;;;;;;4980216;28;20030;-71
2022/05/29 13:49:00;;;;;;;6.80;4.50;;;;;;;;;;4984911;28;20102;-76
2022/05/29 13:51:27;;;;;;;6.63;3.47;;;;;;;;;;4987859;28;20022;-71
2022/05/29 13:53:55;;;;;;;4.78;3.40;;;;;;;;;;4989262;28;20466;-72
2022/05/29 13:56:20;;;;;;;4.75;3.28;;;;;;;;;;4993034;28;20054;-71
2022/05/29 14:04:38;;;;;;;3.85;3.28;;;;;;;;;;4987665;28;20056;-74
2022/05/29 14:07:11;;;;;;;4.00;3.28;;;;;;;;;;4978650;28;20037;-72
2022/05/29 14:09:39;;;;;;;4.10;3.38;;;;;;;;;;4993546;28;20053;-74
2022/05/29 14:12:16;;;;;;;6.97;3.38;;;;;;;;;;4978564;28;20038;-71
2022/05/29 14:14:49;;;;;;;3.33;2.92;;;;;;;;;;4979662;28;20066;-71
2022/05/29 14:17:29;;;;;;;3.42;2.90;;;;;;;;;;4977485;28;20368;-72
2022/05/29 14:19:54;;;;;;;4.53;3.10;;;;;;;;;;4979941;28;20030;-74
2022/05/29 14:22:54;;;;;;;5.32;3.00;;;;;;;;;;4979491;28;20034;-72
2022/05/29 14:25:29;;;;;;;4.00;2.88;;;;;;;;;;4978033;28;20046;-72
2022/05/29 14:28:04;;;;;;;15.65;10.07;;;;;;;;;;4976579;28;20030;-74
2022/05/29 14:30:39;;;;;;;10.68;7.05;;;;;;;;;;4988110;28;20022;-72
2022/05/29 14:33:16;;;;;;;10.30;6.13;;;;;;;;;;4975263;28;20045;-72
2022/05/29 14:35:44;;;;;;;7.57;4.60;;;;;;;;;;4974962;28;21081;-70
2022/05/29 14:38:28;;;;;;;8.30;5.00;;;;;;;;;;4966363;28;20034;-73
2022/05/29 14:40:59;;;;;;;6.15;4.55;;;;;;;;;;4980202;28;20026;-73
2022/05/29 14:43:27;;;;;;;9.82;6.95;;;;;;;;;;4982331;28;21021;-74
2022/05/29 14:46:05;;;;;;;13.27;8.60;;;;;;;;;;4979744;28;20026;-70
2022/05/29 14:48:35;;;;;;;7.13;5.35;;;;;;;;;;4961346;28;20342;-73
2022/05/29 14:51:04;;;;;;;13.10;5.90;;;;;;;;;;4976565;28;20049;-73
2022/05/29 14:53:40;;;;;;;5.53;4.50;;;;;;;;;;4973839;28;20038;-72
2022/05/29 14:56:11;;;;;;;6.00;3.88;;;;;;;;;;4956604;28;20339;-72
2022/05/29 14:58:38;;;;;;;5.13;4.63;;;;;;;;;;4977545;28;20018;-72
2022/05/29 15:01:06;;;;;;;6.88;4.30;;;;;;;;;;4959057;28;20014;-72
2022/05/29 15:03:36;;;;;;;9.20;6.88;;;;;;;;;;4969401;28;20069;-72
2022/05/29 15:06:02;;;;;;;8.73;6.03;;;;;;;;;;4970769;28;20465;-73
2022/05/29 15:11:26;;;;;;;6.07;4.22;;;;;;;;;;4975123;28;20041;-71
2022/05/29 15:13:56;;;;;;;5.43;4.13;;;;;;;;;;4956505;28;20037;-75
2022/05/29 15:16:32;;;;;;;5.53;3.72;;;;;;;;;;4953460;28;20037;-72
2022/05/29 15:25:08;;;;;;;5.63;3.75;;;;;;;;;;4970907;28;20518;-72
2022/05/29 15:27:38;;;;;;;5.82;3.22;;;;;;;;;;4973850;28;20038;-74
2022/05/29 15:30:07;;;;;;;4.50;3.42;;;;;;;;;;4970946;28;20029;-72
2022/05/29 15:32:35;;;;;;;4.30;3.85;;;;;;;;;;4971575;28;20052;-73
2022/05/29 15:35:10;;;;;;;5.15;4.18;;;;;;;;;;4977093;28;20168;-76
2022/05/29 15:37:54;;;;;;;8.68;7.78;;;;;;;;;;4974077;28;20030;-71